createdAt,value
2017-09-17T17:31:28.193Z,53.93
2017-09-17T17:31:46.961Z,53.35
2017-09-17T17:32:05.180Z,53.02
2017-09-17T17:32:23.959Z,53.24
2017-09-17T17:32:42.733Z,53.81
2017-09-17T17:33:02.011Z,53.55
2017-09-17T17:33:21.272Z,53.91
2017-09-17T17:34:12.999Z,54.6
2017-09-17T17:34:45.958Z,54.96
2017-09-17T17:35:18.981Z,54.08
2017-09-17T17:35:52.521Z,54.17
2017-09-17T17:36:26.497Z,53.39
2017-09-17T17:36:46.160Z,53.19
2017-09-17T17:37:05.633Z,53.39
2017-09-17T17:37:39.245Z,52.99
2017-09-17T17:37:58.218Z,52.53
2017-09-17T17:38:17.520Z,52.62
2017-09-17T17:38:36.486Z,52.55
2017-09-17T17:38:55.265Z,52.58
2017-09-17T17:39:14.547Z,52.78
2017-09-17T17:40:06.955Z,52.14
2017-09-17T17:40:39.190Z,52.14
2017-09-17T17:40:58.193Z,52.36
2017-09-17T17:41:17.158Z,52.36
2017-09-17T17:41:36.654Z,51.99
2017-09-17T17:42:09.085Z,51.79
2017-09-17T17:43:01.898Z,52.06
2017-09-17T17:43:21.791Z,51.74
2017-09-17T17:43:41.032Z,51.81
2017-09-17T17:43:59.864Z,51.79
2017-09-17T17:44:32.509Z,52.19
2017-09-17T17:44:52.435Z,52.45
2017-09-17T17:45:11.223Z,52.65
2017-09-17T17:45:29.670Z,52.92
2017-09-17T17:45:48.645Z,52.92
2017-09-17T17:46:21.646Z,52.82
2017-09-17T17:46:41.148Z,52.92
2017-09-17T17:47:00.122Z,52.82
2017-09-17T17:47:18.901Z,52.82
2017-09-17T17:47:38.584Z,53.12
2017-09-17T17:47:57.571Z,53.22
2017-09-17T17:48:15.823Z,53.22
2017-09-17T17:48:35.149Z,52.8
2017-09-17T17:48:54.150Z,52.32
2017-09-17T17:49:13.660Z,52.33
2017-09-17T17:49:32.163Z,52.16
2017-09-17T17:49:51.622Z,51.67
2017-09-17T17:50:43.021Z,51.12
2017-09-17T17:51:01.854Z,51.15
2017-09-17T17:51:21.069Z,51.12
2017-09-17T17:51:40.082Z,51.05
2017-09-17T17:51:58.322Z,50.81
2017-09-17T17:52:16.532Z,51.05
2017-09-17T17:52:35.838Z,50.98
2017-09-17T17:52:54.792Z,50.68
2017-09-17T17:53:14.476Z,50.63
2017-09-17T17:53:33.947Z,50.73
2017-09-17T17:54:07.212Z,50.36
2017-09-17T17:54:40.170Z,49.82
2017-09-17T17:54:59.132Z,49.55
2017-09-17T17:55:17.600Z,49.27
2017-09-17T17:55:36.555Z,49.18
2017-09-17T17:55:54.458Z,49.27
2017-09-17T17:56:12.183Z,49.27
2017-09-17T17:56:31.153Z,49.35
2017-09-17T17:56:49.579Z,49.35
2017-09-17T17:57:07.827Z,49.37
2017-09-17T17:57:26.585Z,49.49
2017-09-17T17:57:45.594Z,49.4
2017-09-17T17:58:04.365Z,49.69
2017-09-17T17:58:23.113Z,49.72
2017-09-17T17:58:42.075Z,49.42
2017-09-17T17:59:00.311Z,49.01
2017-09-17T17:59:33.053Z,49.13
2017-09-17T18:00:24.781Z,49.7
2017-09-17T18:01:16.994Z,56.48
2017-09-17T18:01:50.448Z,60.7
2017-09-17T18:02:09.914Z,61.26
2017-09-17T18:02:28.695Z,61.1
2017-09-17T18:02:47.656Z,62.32
2017-09-17T18:03:05.578Z,62.75
2017-09-17T18:03:39.074Z,62.88
2017-09-17T18:03:58.588Z,63.01
2017-09-17T18:04:51.663Z,63.13
2017-09-17T18:05:10.647Z,63.77
2017-09-17T18:05:43.616Z,64.32
2017-09-17T18:06:02.629Z,64.32
2017-09-17T18:06:21.439Z,64.36
2017-09-17T18:06:40.693Z,64.16
2017-09-17T18:06:59.639Z,64.09
2017-09-17T18:07:19.193Z,64.22
2017-09-17T18:07:38.703Z,64.19
2017-09-17T18:08:11.663Z,63.53
2017-09-17T18:08:31.244Z,63.63
2017-09-17T18:08:50.198Z,62.84
2017-09-17T18:09:09.904Z,63.34
2017-09-17T18:09:42.174Z,63.18
2017-09-17T18:10:01.666Z,63.34
2017-09-17T18:10:21.183Z,63.51
2017-09-17T18:10:54.125Z,64.76
2017-09-17T18:11:13.243Z,65.09
2017-09-17T18:11:32.223Z,65.38
2017-09-17T18:11:51.194Z,65.38
2017-09-17T18:12:10.162Z,65.48
2017-09-17T18:12:29.642Z,64.74
2017-09-17T18:12:48.617Z,64.89
2017-09-17T18:13:07.595Z,65.09
2017-09-17T18:13:26.926Z,65.12
2017-09-17T18:13:46.600Z,65.25
2017-09-17T18:14:05.577Z,64.77
2017-09-17T18:14:39.069Z,64.59
2017-09-17T18:14:58.347Z,64.36
2017-09-17T18:15:17.492Z,64.16
2017-09-17T18:15:37.558Z,63.87
2017-09-17T18:15:55.273Z,63.26
2017-09-17T18:16:47.535Z,62.99
2017-09-17T18:17:07.011Z,62.88
2017-09-17T18:17:40.509Z,63.02
2017-09-17T18:17:59.277Z,63.51
2017-09-17T18:18:50.963Z,63.47
2017-09-17T18:19:23.899Z,63.4
2017-09-17T18:19:57.186Z,63.24
2017-09-17T18:20:30.122Z,63.51
2017-09-17T18:21:03.059Z,63.97
2017-09-17T18:21:21.008Z,64.17
2017-09-17T18:21:39.250Z,64.29
2017-09-17T18:21:58.980Z,64
2017-09-17T18:22:32.469Z,64.26
2017-09-17T18:22:51.966Z,64.43
2017-09-17T18:23:25.240Z,64.62
2017-09-17T18:23:57.668Z,64.53
2017-09-17T18:24:16.615Z,63.78
2017-09-17T18:24:36.098Z,63.48
2017-09-17T18:24:55.574Z,63.28
2017-09-17T18:25:14.644Z,63.51
2017-09-17T18:25:48.122Z,64.04
2017-09-17T18:26:21.090Z,64.11
2017-09-17T18:26:39.019Z,64.23
2017-09-17T18:26:57.268Z,64.26
2017-09-17T18:27:15.503Z,64.36
2017-09-17T18:27:34.971Z,64.26
2017-09-17T18:28:07.195Z,64.17
2017-09-17T18:28:26.170Z,64.59
2017-09-17T18:28:45.159Z,64.66
2017-09-17T18:29:04.475Z,64.76
2017-09-17T18:29:23.808Z,65.35
2017-09-17T18:29:42.552Z,65.88
2017-09-17T18:30:01.299Z,65.81
2017-09-17T18:30:19.008Z,65.33
2017-09-17T18:30:52.482Z,66.93
2017-09-17T18:31:11.242Z,67.19
2017-09-17T18:31:44.169Z,67.74
2017-09-17T18:32:03.666Z,67.77
2017-09-17T18:32:22.453Z,67.35
2017-09-17T18:32:41.922Z,67.32
2017-09-17T18:33:15.185Z,67.55
2017-09-17T18:33:48.123Z,67.74
2017-09-17T18:34:06.885Z,67.87
2017-09-17T18:34:26.356Z,68.07
2017-09-17T18:34:45.326Z,68.66
2017-09-17T18:35:03.979Z,68.56
2017-09-17T18:35:22.740Z,68.46
2017-09-17T18:35:41.522Z,68.56
2017-09-17T18:36:00.494Z,68.2
2017-09-17T18:36:19.292Z,67.38
2017-09-17T18:36:37.545Z,67.19
2017-09-17T18:36:56.328Z,67.77
2017-09-17T18:37:15.910Z,67.97
2017-09-17T18:37:48.728Z,69.25
2017-09-17T18:38:22.184Z,69.93
2017-09-17T18:38:41.665Z,70.98
2017-09-17T18:39:00.623Z,71.77
2017-09-17T18:39:19.594Z,72.48
2017-09-17T18:39:38.565Z,72.81
2017-09-17T18:39:56.793Z,73.01
2017-09-17T18:40:16.498Z,73.54
2017-09-17T18:40:35.291Z,74.19
2017-09-17T18:40:54.597Z,74.48
2017-09-17T18:41:13.063Z,74.62
2017-09-17T18:41:31.324Z,74.52
2017-09-17T18:41:50.612Z,73.93
2017-09-17T18:42:09.583Z,73.54
2017-09-17T18:42:28.866Z,73.93
2017-09-17T18:43:02.173Z,72.88
2017-09-17T18:43:21.143Z,73.18
2017-09-17T18:43:40.100Z,72.98
2017-09-17T18:44:31.165Z,73.44
2017-09-17T18:44:50.337Z,73.38
2017-09-17T18:45:09.629Z,73.57
2017-09-17T18:45:43.089Z,74.22
2017-09-17T18:46:02.084Z,74.68
2017-09-17T18:46:22.273Z,75.37
2017-09-17T18:46:54.705Z,76.21
2017-09-17T18:47:27.850Z,76.21
2017-09-17T18:47:47.050Z,76.34
2017-09-17T18:48:05.498Z,76.31
2017-09-17T18:48:52.610Z,78.27
2017-09-17T18:49:12.701Z,78.23
2017-09-17T18:49:31.135Z,77.87
2017-09-17T18:49:50.892Z,78.66
2017-09-17T18:51:06.115Z,83.87
2017-09-17T18:51:53.499Z,83.54
2017-09-17T18:52:27.165Z,82.93
2017-09-17T18:52:47.645Z,82.68
2017-09-17T18:53:07.013Z,82.68
2017-09-17T18:53:25.139Z,82.92
2017-09-17T18:53:45.635Z,85.03
2017-09-17T18:54:50.505Z,88.49
2017-09-17T18:56:10.976Z,90.41
2017-09-17T18:57:15.001Z,91.53
2017-09-17T18:57:35.291Z,91.88
2017-09-17T18:58:08.114Z,91.19
2017-09-17T18:58:41.629Z,90.69
2017-09-17T18:59:27.840Z,91.78
2017-09-17T18:59:45.232Z,91.68
2017-09-17T19:00:02.654Z,91.97
2017-09-17T19:01:08.846Z,94.53
2017-09-17T19:01:29.548Z,94.82
2017-09-17T19:02:17.102Z,97.27
2017-09-17T19:02:50.968Z,98.49
2017-09-17T19:03:11.733Z,98.29
2017-09-17T19:03:31.494Z,97.95
2017-09-17T19:04:17.698Z,99.99
2017-09-17T19:04:36.882Z,99.99
2017-09-17T19:04:55.025Z,99.99
2017-09-17T19:05:14.657Z,99.99
2017-09-17T19:05:48.434Z,99.99
2017-09-17T19:07:41.611Z,99.99
2017-09-17T19:08:14.959Z,99.99
2017-09-17T19:08:33.302Z,99.99
2017-09-17T19:09:38.150Z,99.99
2017-09-17T19:10:24.371Z,99.99
2017-09-17T19:11:11.145Z,99.99
2017-09-17T19:11:30.143Z,99.99
2017-09-17T19:11:48.290Z,99.99
2017-09-17T19:12:07.480Z,99.99
2017-09-17T19:12:40.503Z,99.99
2017-09-17T19:13:13.355Z,99.99
2017-09-17T19:14:32.946Z,99.99
2017-09-17T19:14:53.347Z,99.99
2017-09-17T19:15:11.230Z,99.99
2017-09-17T19:15:57.859Z,99.99
2017-09-17T19:16:32.706Z,99.99
2017-09-17T19:16:52.269Z,99.99
2017-09-17T19:18:25.444Z,99.99
2017-09-17T19:18:58.899Z,99.99
2017-09-17T19:19:33.191Z,99.99
2017-09-17T19:21:13.571Z,99.99
2017-09-17T19:21:32.941Z,99.99
2017-09-17T19:21:51.589Z,99.99
2017-09-17T19:22:10.932Z,99.99
2017-09-17T19:22:57.870Z,99.99
2017-09-17T19:23:31.648Z,99.99
2017-09-17T19:24:04.380Z,99.99
2017-09-17T19:24:23.407Z,99.99
2017-09-17T19:25:30.972Z,99.99
2017-09-17T19:26:03.201Z,99.99
2017-09-17T19:26:36.148Z,99.99
2017-09-17T19:27:37.279Z,99.99
2017-09-17T19:27:56.225Z,99.99
2017-09-17T19:28:29.390Z,99.99
2017-09-17T19:29:03.152Z,99.99
2017-09-17T19:29:36.107Z,99.99
2017-09-17T19:30:22.517Z,99.99
2017-09-17T19:30:41.497Z,99.99
2017-09-17T19:30:59.827Z,99.99
2017-09-17T19:31:18.950Z,99.99
2017-09-17T19:31:51.180Z,99.99
2017-09-17T19:32:23.612Z,99.99
2017-09-17T19:32:42.295Z,99.99
2017-09-17T19:34:17.616Z,99.99
2017-09-17T19:35:04.250Z,99.99
2017-09-17T19:35:36.873Z,99.99
2017-09-17T19:36:09.325Z,99.99
2017-09-17T19:36:41.033Z,99.99
2017-09-17T19:38:01.818Z,99.99
2017-09-17T19:38:35.895Z,99.99
2017-09-17T19:39:37.349Z,99.99
2017-09-17T19:40:11.208Z,99.99
2017-09-17T19:40:31.158Z,99.99
2017-09-17T19:41:05.028Z,99.99
2017-09-17T19:41:23.911Z,99.99
2017-09-17T19:41:42.725Z,99.99
2017-09-17T19:42:15.784Z,99.99
2017-09-17T19:42:35.865Z,99.99
2017-09-17T19:43:42.733Z,99.99
2017-09-17T19:44:49.002Z,99.99
2017-09-17T19:45:42.600Z,99.99
2017-09-17T19:46:02.158Z,99.99
2017-09-17T19:46:20.823Z,99.99
2017-09-17T19:46:52.510Z,99.99
2017-09-17T19:47:25.822Z,99.99
2017-09-17T19:47:59.139Z,99.99
2017-09-17T19:48:18.107Z,99.99
2017-09-17T19:49:24.608Z,99.99
2017-09-17T19:50:10.840Z,99.99
2017-09-17T19:50:30.253Z,99.99
2017-09-17T19:50:49.401Z,99.99
2017-09-17T19:51:22.403Z,99.99
2017-09-17T19:52:42.190Z,99.99
2017-09-17T19:53:15.355Z,99.99
2017-09-17T19:53:49.229Z,99.99
2017-09-17T19:55:26.637Z,99.99
2017-09-17T19:55:47.545Z,99.99
2017-09-17T19:56:53.159Z,99.99
2017-09-17T19:57:45.912Z,99.99
2017-09-17T19:58:18.683Z,99.99
2017-09-17T19:58:52.179Z,99.99
2017-09-17T19:59:11.148Z,99.99
2017-09-17T19:59:29.994Z,99.99
2017-09-17T19:59:48.976Z,99.99
2017-09-17T20:00:07.607Z,99.99
2017-09-17T20:00:25.937Z,99.99
2017-09-17T20:00:58.958Z,99.99
2017-09-17T20:01:46.093Z,99.99
2017-09-17T20:03:07.121Z,99.99
2017-09-17T20:03:26.482Z,99.99
2017-09-17T20:03:45.216Z,99.99
2017-09-17T20:04:04.992Z,99.99
2017-09-17T20:06:30.181Z,99.99
2017-09-17T20:07:03.705Z,99.99
2017-09-17T20:07:23.218Z,99.99
2017-09-17T20:07:41.747Z,99.99
2017-09-17T20:08:15.021Z,99.99
2017-09-17T20:08:33.810Z,99.99
2017-09-17T20:09:06.783Z,99.99
2017-09-17T20:09:39.224Z,99.99
2017-09-17T20:09:57.321Z,99.99
2017-09-17T20:10:16.815Z,99.99
2017-09-17T20:11:06.958Z,99.99
2017-09-17T20:11:39.913Z,99.99
2017-09-17T20:12:12.664Z,99.99
2017-09-17T20:12:46.106Z,99.99
2017-09-17T20:13:35.854Z,99.99
2017-09-17T20:13:53.456Z,99.99
2017-09-17T20:14:12.761Z,99.99
2017-09-17T20:14:31.150Z,99.99
2017-09-17T20:15:04.186Z,99.99
2017-09-17T20:15:36.410Z,99.99
2017-09-17T20:16:08.630Z,99.99
2017-09-17T20:16:28.336Z,99.99
2017-09-17T20:17:01.677Z,99.99
2017-09-17T20:17:20.529Z,99.99
2017-09-17T20:17:53.599Z,99.99
2017-09-17T20:18:43.946Z,99.99
2017-09-17T20:19:16.170Z,99.99
2017-09-17T20:19:35.202Z,99.99
2017-09-17T20:20:08.530Z,99.99
2017-09-17T20:20:27.320Z,99.99
2017-09-17T20:20:46.508Z,99.99
2017-09-17T20:21:05.019Z,99.99
2017-09-17T20:22:11.010Z,99.99
2017-09-17T20:22:43.790Z,99.99
2017-09-17T20:23:03.391Z,99.99
2017-09-17T20:23:21.515Z,99.99
2017-09-17T20:23:39.232Z,99.99
2017-09-17T20:24:12.186Z,99.99
2017-09-17T20:24:31.485Z,99.99
2017-09-17T20:24:49.921Z,99.99
2017-09-17T20:25:22.707Z,99.99
2017-09-17T20:25:41.907Z,99.99
2017-09-17T20:25:59.856Z,99.99
2017-09-17T20:26:18.107Z,99.99
2017-09-17T20:26:35.810Z,99.99
2017-09-17T20:26:53.561Z,99.99
2017-09-17T20:27:11.811Z,99.99
2017-09-17T20:27:43.501Z,99.99
2017-09-17T20:28:15.947Z,99.99
2017-09-17T20:28:49.249Z,99.99
2017-09-17T20:29:07.278Z,99.99
2017-09-17T20:29:25.545Z,99.99
2017-09-17T20:29:44.371Z,99.99
2017-09-17T20:30:03.696Z,99.99
2017-09-17T20:30:22.789Z,99.99
2017-09-17T20:30:41.311Z,99.99
2017-09-17T20:30:59.565Z,99.99
2017-09-17T20:31:32.514Z,99.99
2017-09-17T20:31:51.261Z,99.99
2017-09-17T20:32:09.939Z,99.99
2017-09-17T20:32:28.784Z,99.99
2017-09-17T20:33:01.056Z,99.99
2017-09-17T20:33:18.787Z,99.99
2017-09-17T20:33:50.998Z,99.99
2017-09-17T20:34:23.878Z,99.99
2017-09-17T20:34:41.595Z,99.99
2017-09-17T20:34:59.516Z,99.99
2017-09-17T20:35:17.952Z,99.99
2017-09-17T20:35:50.702Z,99.99
2017-09-17T20:36:09.494Z,99.99
2017-09-17T20:36:40.667Z,99.99
2017-09-17T20:37:13.606Z,99.99
2017-09-17T20:37:32.605Z,99.99
2017-09-17T20:38:23.927Z,99.99
2017-09-17T20:38:42.702Z,99.99
2017-09-17T20:39:01.149Z,99.99
2017-09-17T20:39:19.617Z,99.99
2017-09-17T20:39:38.592Z,99.99
2017-09-17T20:40:11.551Z,99.99
2017-09-17T20:40:28.753Z,99.99
2017-09-17T20:40:47.190Z,99.99
2017-09-17T20:41:05.144Z,99.99
2017-09-17T20:41:24.108Z,99.99
2017-09-17T20:41:41.836Z,99.99
2017-09-17T20:42:00.491Z,99.99
2017-09-17T20:42:19.787Z,99.99
2017-09-17T20:43:10.999Z,99.99
2017-09-17T20:43:29.422Z,99.99
2017-09-17T20:43:47.170Z,99.99
2017-09-17T20:44:19.105Z,99.99
2017-09-17T20:44:38.133Z,99.99
2017-09-17T20:44:56.614Z,99.99
2017-09-17T20:45:47.809Z,99.99
2017-09-17T20:46:05.847Z,99.99
2017-09-17T20:46:23.694Z,99.99
2017-09-17T20:46:43.445Z,99.99
2017-09-17T20:47:02.963Z,99.99
2017-09-17T20:47:21.939Z,99.99
2017-09-17T20:47:54.698Z,99.99
2017-09-17T20:48:13.690Z,99.99
2017-09-17T20:48:32.162Z,99.99
2017-09-17T20:48:50.135Z,99.99
2017-09-17T20:49:08.941Z,99.99
2017-09-17T20:49:56.189Z,99.99
2017-09-17T20:50:14.547Z,99.99
2017-09-17T20:50:33.860Z,99.99
2017-09-17T20:50:52.601Z,99.99
2017-09-17T20:51:10.841Z,99.99
2017-09-17T20:51:28.039Z,99.99
2017-09-17T20:51:46.491Z,99.99
2017-09-17T20:52:05.421Z,99.99
2017-09-17T20:52:23.971Z,99.99
2017-09-17T20:52:42.992Z,99.99
2017-09-17T20:53:01.772Z,99.99
2017-09-17T20:53:34.520Z,99.99
2017-09-17T20:53:51.905Z,99.99
2017-09-17T20:54:10.667Z,99.99
2017-09-17T20:54:29.413Z,99.99
2017-09-17T20:54:47.127Z,99.99
2017-09-17T20:55:05.560Z,99.99
2017-09-17T20:55:24.812Z,99.99
2017-09-17T20:55:44.154Z,99.99
2017-09-17T20:56:02.936Z,99.99
2017-09-17T20:56:20.837Z,99.99
2017-09-17T20:56:38.546Z,99.99
2017-09-17T20:56:56.819Z,99.99
2017-09-17T20:57:29.054Z,99.99
2017-09-17T20:57:47.831Z,99.99
2017-09-17T20:58:06.076Z,99.99
2017-09-17T20:58:23.785Z,99.99
2017-09-17T20:58:42.017Z,99.99
2017-09-17T20:59:00.782Z,99.99
2017-09-17T20:59:19.023Z,99.99
2017-09-17T20:59:36.222Z,99.99
2017-09-17T20:59:53.944Z,99.99
2017-09-17T21:00:12.715Z,99.99
2017-09-17T21:00:31.482Z,99.99
2017-09-17T21:00:49.210Z,99.99
2017-09-17T21:01:06.395Z,99.99
2017-09-17T21:01:25.146Z,99.99
2017-09-17T21:01:43.911Z,99.99
2017-09-17T21:02:01.609Z,99.99
2017-09-17T21:02:19.842Z,99.99
2017-09-17T21:02:38.602Z,99.99
2017-09-17T21:02:56.870Z,99.99
2017-09-17T21:03:15.635Z,99.99
2017-09-17T21:03:33.351Z,99.99
2017-09-17T21:03:52.114Z,99.99
2017-09-17T21:04:10.862Z,99.99
2017-09-17T21:04:29.607Z,99.99
2017-09-17T21:04:48.360Z,99.99
2017-09-17T21:05:07.126Z,99.99
2017-09-17T21:05:25.349Z,99.99
2017-09-17T21:05:44.100Z,99.99
2017-09-17T21:06:02.854Z,99.99
2017-09-17T21:06:20.572Z,99.99
2017-09-17T21:06:39.328Z,99.99
2017-09-17T21:06:56.523Z,99.99
2017-09-17T21:07:14.787Z,99.99
2017-09-17T21:07:34.074Z,99.99
2017-09-17T21:07:52.305Z,99.99
2017-09-17T21:08:11.061Z,99.99
2017-09-17T21:08:28.783Z,99.99
2017-09-17T21:08:47.039Z,99.99
2017-09-17T21:09:04.749Z,99.99
2017-09-17T21:09:22.980Z,99.99
2017-09-17T21:09:41.255Z,99.99
2017-09-17T21:09:59.487Z,99.99
2017-09-17T21:10:18.231Z,99.99
2017-09-17T21:10:35.944Z,99.99
2017-09-17T21:10:54.174Z,99.99
2017-09-17T21:11:13.053Z,99.99
2017-09-17T21:11:31.877Z,99.99
2017-09-17T21:11:50.109Z,99.99
2017-09-17T21:12:08.859Z,99.99
2017-09-17T21:12:27.668Z,99.99
2017-09-17T21:12:45.908Z,99.99
2017-09-17T21:13:03.617Z,99.99
2017-09-17T21:13:22.369Z,99.99
2017-09-17T21:13:41.643Z,99.99
2017-09-17T21:13:58.824Z,99.99
2017-09-17T21:14:16.577Z,99.99
2017-09-17T21:14:35.856Z,99.99
2017-09-17T21:14:54.629Z,99.99
2017-09-17T21:15:11.823Z,99.99
2017-09-17T21:15:30.052Z,99.99
2017-09-17T21:15:47.775Z,99.99
2017-09-17T21:16:06.018Z,99.99
2017-09-17T21:16:24.783Z,99.99
2017-09-17T21:16:43.002Z,99.99
2017-09-17T21:16:59.664Z,99.99
2017-09-17T21:17:18.922Z,99.99
2017-09-17T21:17:37.675Z,99.99
2017-09-17T21:17:55.947Z,99.99
2017-09-17T21:18:13.664Z,99.99
2017-09-17T21:18:32.949Z,99.99
2017-09-17T21:18:50.667Z,99.99
2017-09-17T21:19:09.416Z,99.99
2017-09-17T21:19:27.665Z,99.99
2017-09-17T21:19:45.918Z,99.99
2017-09-17T21:20:04.159Z,99.99
2017-09-17T21:20:22.411Z,99.99
2017-09-17T21:20:41.134Z,99.99
2017-09-17T21:20:59.362Z,99.99
2017-09-17T21:21:18.639Z,99.99
2017-09-17T21:21:37.921Z,99.99
2017-09-17T21:21:56.678Z,99.99
2017-09-17T21:22:14.902Z,99.99
2017-09-17T21:22:34.311Z,99.99
2017-09-17T21:22:52.731Z,99.99
2017-09-17T21:23:10.975Z,99.99
2017-09-17T21:23:29.198Z,99.99
2017-09-17T21:23:47.974Z,99.99
2017-09-17T21:24:06.214Z,99.99
2017-09-17T21:24:25.516Z,99.99
2017-09-17T21:24:43.769Z,99.99
2017-09-17T21:25:01.508Z,99.99
2017-09-17T21:25:19.742Z,99.99
2017-09-17T21:25:38.507Z,99.99
2017-09-17T21:25:55.701Z,99.99
2017-09-17T21:26:13.416Z,99.99
2017-09-17T21:26:31.153Z,99.99
2017-09-17T21:26:48.851Z,99.99
2017-09-17T21:27:07.074Z,99.99
2017-09-17T21:27:25.311Z,0
2017-09-17T21:27:43.564Z,99.99
2017-09-17T21:28:01.792Z,99.99
2017-09-17T21:28:21.050Z,99.99
2017-09-17T21:28:39.265Z,99.99
2017-09-17T21:28:58.578Z,99.99
2017-09-17T21:29:16.293Z,99.99
2017-09-17T21:29:34.554Z,99.99
2017-09-17T21:29:52.787Z,99.99
2017-09-17T21:30:11.571Z,99.99
2017-09-17T21:30:29.283Z,99.99
2017-09-17T21:30:48.054Z,99.99
2017-09-17T21:31:06.798Z,99.99
2017-09-17T21:31:24.521Z,99.99
2017-09-17T21:31:43.300Z,99.99
2017-09-17T21:32:02.592Z,99.99
2017-09-17T21:32:21.350Z,99.99
2017-09-17T21:32:39.060Z,99.99
2017-09-17T21:32:56.806Z,99.99
2017-09-17T21:33:15.037Z,99.99
2017-09-17T21:33:33.801Z,99.99
2017-09-17T21:33:51.504Z,99.99
2017-09-17T21:34:08.721Z,99.99
2017-09-17T21:34:27.005Z,99.99
2017-09-17T21:34:45.299Z,99.99
2017-09-17T21:35:03.533Z,99.99
2017-09-17T21:35:21.251Z,99.99
2017-09-17T21:35:39.503Z,99.99
2017-09-17T21:35:56.711Z,99.99
2017-09-17T21:36:14.428Z,99.99
2017-09-17T21:36:32.659Z,99.99
2017-09-17T21:36:49.855Z,99.99
2017-09-17T21:37:09.137Z,99.99
2017-09-17T21:37:27.581Z,99.99
2017-09-17T21:37:45.304Z,99.99
2017-09-17T21:38:03.038Z,99.99
2017-09-17T21:38:21.261Z,99.99
2017-09-17T21:38:38.450Z,99.99
2017-09-17T21:38:56.717Z,99.99
2017-09-17T21:39:14.486Z,99.99
2017-09-17T21:39:32.773Z,99.99
2017-09-17T21:39:52.062Z,99.99
2017-09-17T21:40:09.761Z,99.99
2017-09-17T21:40:28.508Z,99.99
2017-09-17T21:40:46.210Z,99.99
2017-09-17T21:41:04.565Z,99.99
2017-09-17T21:41:23.922Z,99.99
2017-09-17T21:41:41.664Z,99.99
2017-09-17T21:41:59.973Z,99.99
2017-09-17T21:42:18.413Z,99.99
2017-09-17T21:42:35.642Z,99.99
2017-09-17T21:42:54.935Z,99.99
2017-09-17T21:43:13.683Z,99.99
2017-09-17T21:43:32.651Z,99.99
2017-09-17T21:43:50.367Z,99.99
2017-09-17T21:44:08.097Z,99.99
2017-09-17T21:44:25.860Z,99.99
2017-09-17T21:44:44.107Z,99.99
2017-09-17T21:45:02.877Z,99.99
2017-09-17T21:45:21.186Z,99.99
2017-09-17T21:45:39.121Z,99.99
2017-09-17T21:45:56.855Z,99.99
2017-09-17T21:46:14.575Z,99.99
2017-09-17T21:46:32.819Z,99.99
2017-09-17T21:46:51.040Z,99.99
2017-09-17T21:47:09.276Z,99.99
2017-09-17T21:47:26.985Z,99.99
2017-09-17T21:47:45.260Z,99.99
2017-09-17T21:48:02.484Z,99.99
2017-09-17T21:48:20.700Z,99.99
2017-09-17T21:48:38.425Z,99.99
2017-09-17T21:48:55.083Z,99.99
2017-09-17T21:49:12.851Z,99.99
2017-09-17T21:49:31.601Z,99.99
2017-09-17T21:49:49.864Z,99.99
2017-09-17T21:50:08.112Z,99.99
2017-09-17T21:50:26.418Z,99.99
2017-09-17T21:50:44.168Z,99.99
2017-09-17T21:51:01.890Z,99.99
2017-09-17T21:51:20.660Z,99.99
2017-09-17T21:51:38.551Z,99.99
2017-09-17T21:51:57.337Z,99.99
2017-09-17T21:52:14.530Z,99.99
2017-09-17T21:52:32.252Z,99.99
2017-09-17T21:52:51.042Z,99.99
2017-09-17T21:53:08.244Z,99.99
2017-09-17T21:53:26.491Z,99.99
2017-09-17T21:53:45.757Z,99.99
2017-09-17T21:54:03.482Z,99.99
2017-09-17T21:54:21.194Z,99.99
2017-09-17T21:54:38.912Z,99.99
2017-09-17T21:54:57.138Z,99.99
2017-09-17T21:55:15.411Z,99.99
2017-09-17T21:55:34.147Z,99.99
2017-09-17T21:55:53.427Z,99.99
2017-09-17T21:56:12.697Z,99.99
2017-09-17T21:56:31.444Z,99.99
2017-09-17T21:56:49.160Z,99.99
2017-09-17T21:57:07.393Z,99.99
2017-09-17T21:57:26.701Z,99.99
2017-09-17T21:57:44.932Z,99.99
2017-09-17T21:58:02.681Z,99.99
2017-09-17T21:58:20.437Z,99.99
2017-09-17T21:58:39.707Z,99.99
2017-09-17T21:58:57.947Z,99.99
2017-09-17T21:59:16.199Z,99.99
2017-09-17T21:59:33.412Z,99.99
2017-09-17T21:59:51.648Z,99.99
2017-09-17T22:00:10.405Z,99.99
2017-09-17T22:00:29.150Z,99.99
2017-09-17T22:00:46.345Z,99.99
2017-09-17T22:01:03.538Z,99.99
2017-09-17T22:01:21.774Z,99.99
2017-09-17T22:01:40.029Z,99.99
2017-09-17T22:01:59.287Z,99.99
2017-09-17T22:02:18.030Z,99.99
2017-09-17T22:02:36.272Z,99.99
2017-09-17T22:02:53.455Z,99.99
2017-09-17T22:03:11.681Z,99.99
2017-09-17T22:03:29.930Z,99.99
2017-09-17T22:03:48.691Z,99.99
2017-09-17T22:04:06.432Z,99.99
2017-09-17T22:04:24.672Z,99.99
2017-09-17T22:04:42.367Z,99.99
2017-09-17T22:05:00.593Z,99.99
2017-09-17T22:05:19.328Z,99.99
2017-09-17T22:05:37.551Z,99.99
2017-09-17T22:05:55.800Z,99.99
2017-09-17T22:06:13.008Z,99.99
2017-09-17T22:06:31.768Z,99.99
2017-09-17T22:06:48.972Z,99.99
2017-09-17T22:07:07.713Z,99.99
2017-09-17T22:07:26.519Z,99.99
2017-09-17T22:07:44.786Z,99.99
2017-09-17T22:08:03.547Z,99.99
2017-09-17T22:08:22.297Z,99.99
2017-09-17T22:08:41.586Z,99.99
2017-09-17T22:09:00.349Z,99.99
2017-09-17T22:09:19.630Z,99.99
2017-09-17T22:09:38.400Z,99.99
2017-09-17T22:09:57.159Z,99.99
2017-09-17T22:10:14.877Z,99.99
2017-09-17T22:10:32.605Z,99.99
2017-09-17T22:10:51.353Z,99.99
2017-09-17T22:11:10.144Z,99.99
2017-09-17T22:11:28.398Z,99.99
2017-09-17T22:11:46.107Z,99.99
2017-09-17T22:12:04.351Z,99.99
2017-09-17T22:12:22.062Z,99.99
2017-09-17T22:12:40.806Z,99.99
2017-09-17T22:12:59.568Z,99.99
2017-09-17T22:13:17.285Z,99.99
2017-09-17T22:13:35.530Z,99.99
2017-09-17T22:13:54.284Z,99.99
2017-09-17T22:14:12.536Z,99.99
2017-09-17T22:14:30.257Z,99.99
2017-09-17T22:14:48.481Z,99.99
2017-09-17T22:15:06.191Z,99.99
2017-09-17T22:15:23.881Z,99.99
2017-09-17T22:15:41.606Z,99.99
2017-09-17T22:15:59.326Z,99.99
2017-09-17T22:16:18.129Z,99.99
2017-09-17T22:16:36.885Z,99.99
2017-09-17T22:16:55.684Z,99.99
2017-09-17T22:17:13.927Z,99.99
2017-09-17T22:17:32.193Z,99.99
2017-09-17T22:17:50.559Z,99.99
2017-09-17T22:18:08.847Z,99.99
2017-09-17T22:18:26.063Z,99.99
2017-09-17T22:18:45.352Z,99.99
2017-09-17T22:19:03.574Z,99.99
2017-09-17T22:19:21.871Z,99.99
2017-09-17T22:19:40.636Z,99.99
2017-09-17T22:19:58.900Z,99.99
2017-09-17T22:20:16.644Z,99.99
2017-09-17T22:20:33.858Z,99.99
2017-09-17T22:20:52.099Z,99.99
2017-09-17T22:21:10.427Z,99.99
2017-09-17T22:21:28.784Z,99.99
2017-09-17T22:21:46.534Z,99.99
2017-09-17T22:22:04.249Z,99.99
2017-09-17T22:22:22.519Z,99.99
2017-09-17T22:22:40.229Z,99.99
2017-09-17T22:22:57.941Z,99.99
2017-09-17T22:23:16.192Z,99.99
2017-09-17T22:23:34.478Z,99.99
2017-09-17T22:23:53.230Z,99.99
2017-09-17T22:24:11.993Z,99.99
2017-09-17T22:24:31.278Z,99.99
2017-09-17T22:24:49.552Z,99.99
2017-09-17T22:25:07.777Z,99.99
2017-09-17T22:25:24.457Z,99.99
2017-09-17T22:25:41.659Z,99.99
2017-09-17T22:25:59.442Z,99.99
2017-09-17T22:26:17.212Z,99.99
2017-09-17T22:26:35.540Z,99.99
2017-09-17T22:26:54.335Z,99.99
2017-09-17T22:27:13.623Z,99.99
2017-09-17T22:27:32.913Z,99.99
2017-09-17T22:27:52.174Z,99.99
2017-09-17T22:28:10.411Z,99.99
2017-09-17T22:28:29.170Z,99.99
2017-09-17T22:28:48.540Z,99.99
2017-09-17T22:29:05.219Z,99.99
2017-09-17T22:29:23.102Z,99.99
2017-09-17T22:29:41.394Z,99.99
2017-09-17T22:29:59.678Z,99.99
2017-09-17T22:30:16.922Z,99.99
2017-09-17T22:30:34.720Z,99.99
2017-09-17T22:30:53.464Z,99.99
2017-09-17T22:31:11.711Z,99.99
2017-09-17T22:31:30.471Z,99.99
2017-09-17T22:31:48.764Z,99.99
2017-09-17T22:32:07.644Z,99.99
2017-09-17T22:32:26.379Z,99.99
2017-09-17T22:32:45.121Z,99.99
2017-09-17T22:33:03.399Z,99.99
2017-09-17T22:33:22.171Z,99.99
2017-09-17T22:33:40.431Z,99.99
2017-09-17T22:33:58.754Z,99.99
2017-09-17T22:34:19.896Z,99.99
2017-09-17T22:34:44.583Z,99.99
2017-09-17T22:35:04.439Z,99.99
2017-09-17T22:35:25.456Z,99.99
2017-09-17T22:35:45.287Z,99.99
2017-09-17T22:36:04.263Z,99.99
2017-09-17T22:36:26.461Z,99.99
2017-09-17T22:36:44.937Z,99.99
2017-09-17T22:37:01.836Z,99.99
2017-09-17T22:37:20.091Z,99.99
2017-09-17T22:37:37.830Z,99.99